createdAt,value
2018-12-03T00:01:29.469Z,97158.28
2018-12-03T00:04:15.345Z,97158.10
2018-12-03T00:06:45.748Z,97155.91
2018-12-03T00:09:14.913Z,97145.41
2018-12-03T00:11:44.040Z,97148.12
2018-12-03T00:14:13.860Z,97144.72
2018-12-03T00:16:43.096Z,97144.16
2018-12-03T00:19:12.835Z,97139.05
2018-12-03T00:21:42.012Z,97141.17
2018-12-03T00:24:11.183Z,97142.30
2018-12-03T00:26:40.512Z,97145.16
2018-12-03T00:29:10.131Z,97144.58
2018-12-03T00:31:39.215Z,97147.78
2018-12-03T00:34:08.476Z,97133.45
2018-12-03T00:36:37.654Z,97136.14
2018-12-03T00:39:08.805Z,97139.05
2018-12-03T00:41:38.165Z,97128.16
2018-12-03T00:44:07.880Z,97143.09
2018-12-03T00:46:37.055Z,97143.17
2018-12-03T00:49:06.216Z,97144.29
2018-12-03T00:51:35.329Z,97152.16
2018-12-03T00:54:04.456Z,97147.69
2018-12-03T00:56:33.629Z,97152.85
2018-12-03T00:59:02.952Z,97148.19
2018-12-03T01:01:36.073Z,97155.61
2018-12-03T01:04:06.408Z,97158.85
2018-12-03T01:06:36.447Z,97154.25
2018-12-03T01:09:08.915Z,97160.39
2018-12-03T01:11:38.474Z,97159.42
2018-12-03T01:14:07.612Z,97162.05
2018-12-03T01:16:36.791Z,97164.75
2018-12-03T01:19:05.998Z,97168.15
2018-12-03T01:21:35.115Z,97177.52
2018-12-03T01:24:04.363Z,97179.38
2018-12-03T01:26:33.561Z,97189.98
2018-12-03T01:29:03.074Z,97184.75
2018-12-03T01:31:32.293Z,97182.92
2018-12-03T01:34:02.194Z,97180.30
2018-12-03T01:36:31.707Z,97185.41
2018-12-03T01:39:00.893Z,97182.31
2018-12-03T01:41:30.098Z,97175.86
2018-12-03T01:43:59.445Z,97188.80
2018-12-03T01:46:28.888Z,97180.37
2018-12-03T01:48:58.074Z,97176.56
2018-12-03T01:51:27.255Z,97167.52
2018-12-03T01:53:56.485Z,97177.14
2018-12-03T01:56:25.911Z,97177.48
2018-12-03T01:58:55.740Z,97177.21
2018-12-03T02:01:24.944Z,97181.26
2018-12-03T02:03:54.239Z,97173.31
2018-12-03T02:06:23.573Z,97173.33
2018-12-03T02:08:52.900Z,97175.57
2018-12-03T02:11:22.280Z,97174.59
2018-12-03T02:13:51.524Z,97176.94
2018-12-03T02:16:20.902Z,97177.47
2018-12-03T02:18:50.036Z,97176.56
2018-12-03T02:21:19.179Z,97181.39
2018-12-03T02:23:48.445Z,97186.34
2018-12-03T02:26:17.591Z,97179.34
2018-12-03T02:28:46.738Z,97181.02
2018-12-03T02:31:16.177Z,97175.31
2018-12-03T02:33:45.334Z,97173.61
2018-12-03T02:36:14.493Z,97177.08
2018-12-03T02:38:43.808Z,97170.48
2018-12-03T02:41:13.494Z,97179.96
2018-12-03T02:43:42.634Z,97175.98
2018-12-03T02:46:11.772Z,97174.41
2018-12-03T02:48:41.098Z,97166.09
2018-12-03T02:51:10.230Z,97181.61
2018-12-03T02:53:39.914Z,97178.26
2018-12-03T02:56:09.054Z,97173.13
2018-12-03T02:58:38.336Z,97177.56
2018-12-03T03:01:08.158Z,97181.58
2018-12-03T03:03:39.836Z,97184.78
2018-12-03T03:06:10.705Z,97177.06
2018-12-03T03:08:41.338Z,97181.16
2018-12-03T03:11:12.500Z,97177.21
2018-12-03T03:13:42.555Z,97170.49
2018-12-03T03:16:11.845Z,97162.42
2018-12-03T03:18:41.344Z,97168.22
2018-12-03T03:21:11.370Z,97167.48
2018-12-03T03:23:40.552Z,97157.92
2018-12-03T03:26:09.826Z,97161.97
2018-12-03T03:28:40.056Z,97169.53
2018-12-03T03:31:09.306Z,97170.89
2018-12-03T03:33:38.585Z,97171.58
2018-12-03T03:36:08.304Z,97175.83
2018-12-03T03:38:37.483Z,97188.72
2018-12-03T03:41:06.639Z,97204.00
2018-12-03T03:43:35.969Z,97198.14
2018-12-03T03:46:05.616Z,97188.60
2018-12-03T03:48:42.838Z,97194.28
2018-12-03T03:51:12.863Z,97190.88
2018-12-03T03:53:42.204Z,97189.09
2018-12-03T03:56:11.430Z,97191.95
2018-12-03T03:58:40.920Z,97191.52
2018-12-03T04:01:10.208Z,97193.28
2018-12-03T04:03:39.390Z,97198.11
2018-12-03T04:06:08.907Z,97180.95
2018-12-03T04:08:38.060Z,97181.96
2018-12-03T04:11:07.965Z,97191.85
2018-12-03T04:13:37.140Z,97193.99
2018-12-03T04:16:06.540Z,97198.67
2018-12-03T04:18:36.013Z,97192.22
2018-12-03T04:21:06.761Z,97199.95
2018-12-03T04:23:35.920Z,97193.34
2018-12-03T04:26:05.874Z,97191.84
2018-12-03T04:28:35.850Z,97200.72
2018-12-03T04:31:05.220Z,97187.48
2018-12-03T04:33:34.679Z,97193.55
2018-12-03T04:36:03.912Z,97178.41
2018-12-03T04:38:33.836Z,97181.30
2018-12-03T04:41:03.076Z,97185.12
2018-12-03T04:43:32.456Z,97189.09
2018-12-03T04:46:01.761Z,97184.62
2018-12-03T04:48:31.029Z,97193.70
2018-12-03T04:51:00.265Z,97192.50
2018-12-03T04:53:29.809Z,97193.42
2018-12-03T04:55:58.965Z,97187.63
2018-12-03T04:58:28.215Z,97182.23
2018-12-03T05:00:57.365Z,97184.00
2018-12-03T05:03:26.545Z,97182.30
2018-12-03T05:05:55.704Z,97182.46
2018-12-03T05:08:24.951Z,97188.87
2018-12-03T05:10:54.287Z,97181.66
2018-12-03T05:13:25.628Z,97180.66
2018-12-03T05:15:54.799Z,97187.80
2018-12-03T05:18:24.002Z,97195.74
2018-12-03T05:20:53.176Z,97190.88
2018-12-03T05:23:22.382Z,97201.49
2018-12-03T05:25:51.577Z,97196.47
2018-12-03T05:28:20.929Z,97189.59
2018-12-03T05:30:50.189Z,97198.16
2018-12-03T05:33:19.373Z,97197.54
2018-12-03T05:35:48.693Z,97194.13
2018-12-03T05:38:17.923Z,97197.88
2018-12-03T05:40:47.124Z,97195.19
2018-12-03T05:43:16.298Z,97198.47
2018-12-03T05:45:45.462Z,97202.84
2018-12-03T05:48:15.007Z,97204.34
2018-12-03T05:50:44.177Z,97203.91
2018-12-03T05:53:13.320Z,97211.20
2018-12-03T05:55:42.485Z,97206.39
2018-12-03T05:58:11.647Z,97213.53
2018-12-03T06:00:40.810Z,97214.59
2018-12-03T06:03:09.949Z,97219.07
2018-12-03T06:05:39.161Z,97213.81
2018-12-03T06:08:08.380Z,97215.24
2018-12-03T06:10:37.712Z,97218.20
2018-12-03T06:13:07.592Z,97221.05
2018-12-03T06:15:36.777Z,97206.16
2018-12-03T06:18:06.376Z,97214.61
2018-12-03T06:20:35.633Z,97222.18
2018-12-03T06:23:04.796Z,97228.55
2018-12-03T06:25:34.731Z,97226.28
2018-12-03T06:28:03.868Z,97219.05
2018-12-03T06:30:33.098Z,97221.33
2018-12-03T06:33:02.317Z,97212.91
2018-12-03T06:35:32.664Z,97212.20
2018-12-03T06:38:02.745Z,97207.30
2018-12-03T06:40:32.999Z,97201.22
2018-12-03T06:43:02.520Z,97198.24
2018-12-03T06:45:31.800Z,97197.74
2018-12-03T06:48:09.577Z,97197.80
2018-12-03T06:50:39.077Z,97196.97
2018-12-03T06:53:08.276Z,97196.04
2018-12-03T06:55:37.496Z,97196.73
2018-12-03T06:58:07.481Z,97207.22
2018-12-03T07:00:36.750Z,97214.68
2018-12-03T07:03:06.644Z,97224.58
2018-12-03T07:05:35.855Z,97221.80
2018-12-03T07:08:06.777Z,97215.36
2018-12-03T07:10:35.969Z,97217.33
2018-12-03T07:13:10.464Z,97219.75
2018-12-03T07:15:42.249Z,97234.50
2018-12-03T07:18:12.391Z,97232.42
2018-12-03T07:20:41.636Z,97233.77
2018-12-03T07:23:10.877Z,97231.50
2018-12-03T07:25:40.108Z,97231.65
2018-12-03T07:28:09.924Z,97238.75
2018-12-03T07:30:39.919Z,97242.70
2018-12-03T07:33:09.833Z,97240.30
2018-12-03T07:35:38.989Z,97247.88
2018-12-03T07:38:08.815Z,97251.48
2018-12-03T07:40:38.043Z,97253.77
2018-12-03T07:43:07.795Z,97260.69
2018-12-03T07:45:37.732Z,97255.52
2018-12-03T07:48:06.927Z,97255.88
2018-12-03T07:50:36.357Z,97251.98
2018-12-03T07:53:06.307Z,97250.66
2018-12-03T07:55:35.504Z,97247.67
2018-12-03T07:58:13.445Z,97249.48
2018-12-03T08:00:47.041Z,97257.55
2018-12-03T08:03:16.528Z,97257.55
2018-12-03T08:05:45.975Z,97254.02
2018-12-03T08:08:15.165Z,97246.20
2018-12-03T08:10:49.923Z,97247.62
2018-12-03T08:13:20.549Z,97266.32
2018-12-03T08:15:49.753Z,97264.05
2018-12-03T08:18:22.239Z,97265.45
2018-12-03T08:20:57.819Z,97262.76
2018-12-03T08:23:36.729Z,97265.27
2018-12-03T08:26:08.863Z,97258.91
2018-12-03T08:28:38.199Z,97255.58
2018-12-03T08:31:07.612Z,97265.86
2018-12-03T08:33:37.266Z,97264.92
2018-12-03T08:36:08.721Z,97253.22
2018-12-03T08:38:39.298Z,97257.95
2018-12-03T08:41:08.254Z,97253.12
2018-12-03T08:43:37.481Z,97251.39
2018-12-03T08:46:09.350Z,97255.34
2018-12-03T08:48:41.592Z,97254.91
2018-12-03T08:51:12.641Z,97259.80
2018-12-03T08:53:45.470Z,97258.08
2018-12-03T08:56:14.756Z,97264.34
2018-12-03T08:58:44.481Z,97261.34
2018-12-03T09:01:17.568Z,97260.52
2018-12-03T09:04:00.378Z,97256.61
2018-12-03T09:06:29.572Z,97255.61
2018-12-03T09:08:58.748Z,97262.89
2018-12-03T09:11:27.944Z,97254.23
2018-12-03T09:13:57.101Z,97257.53
2018-12-03T09:16:26.277Z,97257.94
2018-12-03T09:18:56.113Z,97258.38
2018-12-03T09:21:25.314Z,97267.02
2018-12-03T09:23:59.253Z,97258.85
2018-12-03T09:26:28.625Z,97260.89
2018-12-03T09:28:58.273Z,97259.63
2018-12-03T09:31:27.440Z,97266.50
2018-12-03T09:33:59.964Z,97274.49
2018-12-03T09:36:30.468Z,97271.87
2018-12-03T09:39:10.879Z,97266.30
2018-12-03T09:41:40.923Z,97259.27
2018-12-03T09:44:10.197Z,97265.84
2018-12-03T09:46:39.516Z,97269.41
2018-12-03T09:49:09.637Z,97264.02
2018-12-03T09:51:38.979Z,97256.76
2018-12-03T09:54:11.043Z,97248.08
2018-12-03T09:56:44.787Z,97246.52
2018-12-03T09:59:21.285Z,97243.67
2018-12-03T10:01:53.907Z,97232.46
2018-12-03T10:04:35.417Z,97216.80
2018-12-03T10:07:04.732Z,97224.47
2018-12-03T10:09:39.183Z,97219.23
2018-12-03T10:12:10.293Z,97217.62
2018-12-03T10:14:39.533Z,97211.02
2018-12-03T10:17:08.700Z,97209.67
2018-12-03T10:19:37.976Z,97211.63
2018-12-03T10:22:08.490Z,97204.01
2018-12-03T10:24:38.872Z,97193.55
2018-12-03T10:27:12.799Z,97187.97
2018-12-03T10:29:43.072Z,97184.30
2018-12-03T10:32:17.704Z,97182.42
2018-12-03T10:34:47.195Z,97176.95
2018-12-03T10:37:18.445Z,97171.75
2018-12-03T10:39:47.646Z,97161.95
2018-12-03T10:42:18.680Z,97160.67
2018-12-03T10:44:48.527Z,97161.23
2018-12-03T10:47:18.074Z,97160.92
2018-12-03T10:49:47.304Z,97151.73
2018-12-03T10:52:22.035Z,97153.55
2018-12-03T10:54:51.710Z,97147.96
2018-12-03T10:57:22.385Z,97154.97
2018-12-03T10:59:54.464Z,97144.98
2018-12-03T11:02:39.652Z,97147.05
2018-12-03T11:05:14.779Z,97150.34
2018-12-03T11:07:44.110Z,97155.63
2018-12-03T11:10:13.301Z,97139.02
2018-12-03T11:12:43.671Z,97131.86
2018-12-03T11:15:15.288Z,97129.66
2018-12-03T11:17:45.092Z,97126.80
2018-12-03T11:20:14.473Z,97124.22
2018-12-03T11:22:45.218Z,97123.23
2018-12-03T11:25:17.074Z,97127.79
2018-12-03T11:27:50.171Z,97127.23
2018-12-03T11:30:19.360Z,97125.94
2018-12-03T11:32:48.524Z,97118.72
2018-12-03T11:35:24.117Z,97123.45
2018-12-03T11:37:58.673Z,97111.96
2018-12-03T11:40:39.925Z,97120.72
2018-12-03T11:43:15.671Z,97116.36
2018-12-03T11:45:45.056Z,97120.61
2018-12-03T11:48:15.085Z,97115.48
2018-12-03T11:50:44.865Z,97127.77
2018-12-03T11:53:14.033Z,97115.28
2018-12-03T11:55:43.286Z,97102.59
2018-12-03T11:58:12.508Z,97101.00
2018-12-03T12:00:42.121Z,97107.39
2018-12-03T12:03:11.380Z,97101.17
2018-12-03T12:05:40.599Z,97099.03
2018-12-03T12:08:10.213Z,97097.64
2018-12-03T12:10:39.437Z,97101.00
2018-12-03T12:13:08.682Z,97094.64
2018-12-03T12:15:37.969Z,97095.99
2018-12-03T12:18:08.217Z,97085.70
2018-12-03T12:20:37.436Z,97091.18
2018-12-03T12:23:07.443Z,97084.81
2018-12-03T12:25:37.089Z,97084.27
2018-12-03T12:28:07.488Z,97077.75
2018-12-03T12:30:36.969Z,97067.86
2018-12-03T12:33:07.306Z,97067.27
2018-12-03T12:35:37.633Z,97064.16
2018-12-03T12:38:06.936Z,97073.17
2018-12-03T12:40:36.160Z,97077.57
2018-12-03T12:43:05.815Z,97078.76
2018-12-03T12:45:47.289Z,97075.60
2018-12-03T12:48:17.013Z,97082.07
2018-12-03T12:50:46.268Z,97080.84
2018-12-03T12:53:15.552Z,97068.08
2018-12-03T12:55:45.217Z,97076.63
2018-12-03T12:58:14.421Z,97069.05
2018-12-03T13:00:43.654Z,97071.18
2018-12-03T13:03:13.332Z,97056.32
2018-12-03T13:05:42.546Z,97057.98
2018-12-03T13:08:11.789Z,97054.59
2018-12-03T13:10:40.981Z,97049.22
2018-12-03T13:13:10.446Z,97047.55
2018-12-03T13:15:39.642Z,97037.73
2018-12-03T13:18:09.596Z,97042.33
2018-12-03T13:20:38.744Z,97040.34
2018-12-03T13:23:08.645Z,97038.55
2018-12-03T13:25:38.247Z,97030.00
2018-12-03T13:28:07.629Z,97028.20
2018-12-03T13:30:36.764Z,97025.62
2018-12-03T13:33:07.357Z,97031.34
2018-12-03T13:35:36.505Z,97042.94
2018-12-03T13:38:05.978Z,97030.61
2018-12-03T13:40:36.027Z,97024.86
2018-12-03T13:43:05.676Z,97027.21
2018-12-03T13:45:35.060Z,97031.57
2018-12-03T13:48:04.253Z,97027.73
2018-12-03T13:50:33.448Z,97031.27
2018-12-03T13:53:03.537Z,97033.52
2018-12-03T13:55:33.365Z,97026.27
2018-12-03T13:58:03.348Z,97036.06
2018-12-03T14:00:33.164Z,97037.83
2018-12-03T14:03:12.860Z,97031.80
2018-12-03T14:05:55.509Z,97029.91
2018-12-03T14:10:50.043Z,97023.52
2018-12-03T14:15:37.198Z,97029.80
2018-12-03T14:18:18.360Z,97028.60
2018-12-03T14:20:49.960Z,97040.99
2018-12-03T14:23:24.369Z,97036.81
2018-12-03T14:25:53.584Z,97034.92
2018-12-03T14:28:27.632Z,97036.53
2018-12-03T14:30:58.089Z,97038.43
2018-12-03T14:33:27.387Z,97050.23
2018-12-03T14:35:56.663Z,97043.87
2018-12-03T14:38:25.901Z,97058.81
2018-12-03T14:40:55.513Z,97054.88
2018-12-03T14:43:24.664Z,97054.08
2018-12-03T14:45:54.642Z,97059.83
2018-12-03T14:48:23.824Z,97048.58
2018-12-03T14:50:53.064Z,97049.09
2018-12-03T14:53:22.608Z,97042.73
2018-12-03T14:55:51.817Z,97033.73
2018-12-03T14:58:21.767Z,97032.40
2018-12-03T15:00:50.983Z,97018.91
2018-12-03T15:03:20.245Z,97028.63
2018-12-03T15:05:49.805Z,97030.69
2018-12-03T15:08:18.984Z,97041.16
2018-12-03T15:10:48.140Z,97039.39
2018-12-03T15:13:17.729Z,97027.75
2018-12-03T15:15:46.954Z,97025.20
2018-12-03T15:18:17.710Z,97021.77
2018-12-03T15:20:51.108Z,97022.95
2018-12-03T15:23:20.308Z,97027.69
2018-12-03T15:25:49.520Z,97019.10
2018-12-03T15:28:18.823Z,97017.23
2018-12-03T15:30:48.044Z,97019.97
2018-12-03T15:33:17.272Z,97016.33
2018-12-03T15:35:46.872Z,97021.89
2018-12-03T15:38:16.516Z,97020.44
2018-12-03T15:40:46.028Z,97027.95
2018-12-03T15:43:15.221Z,97027.12
2018-12-03T15:45:44.424Z,97031.53
2018-12-03T15:48:13.657Z,97022.84
2018-12-03T15:50:42.841Z,97028.51
2018-12-03T15:53:12.021Z,97022.13
2018-12-03T15:55:42.115Z,97017.67
2018-12-03T15:58:11.381Z,97015.56
2018-12-03T16:00:40.577Z,97007.34
2018-12-03T16:03:10.201Z,96999.63
2018-12-03T16:05:39.494Z,96997.87
2018-12-03T16:08:08.750Z,96991.16
2018-12-03T16:10:38.081Z,96994.42
2018-12-03T16:13:07.295Z,96996.92
2018-12-03T16:15:36.488Z,96997.25
2018-12-03T16:18:05.670Z,96998.37
2018-12-03T16:20:34.860Z,96996.19
2018-12-03T16:23:04.132Z,97002.08
2018-12-03T16:25:34.189Z,97002.46
2018-12-03T16:28:03.937Z,97003.35
2018-12-03T16:30:33.085Z,97006.80
2018-12-03T16:33:02.384Z,96998.31
2018-12-03T16:35:31.920Z,96995.55
2018-12-03T16:38:01.082Z,96989.27
2018-12-03T16:40:30.335Z,96988.88
2018-12-03T16:42:59.552Z,96984.78
2018-12-03T16:45:28.700Z,96982.62
2018-12-03T16:47:57.923Z,96973.69
2018-12-03T16:50:27.504Z,96966.87
2018-12-03T16:52:56.749Z,96965.09
2018-12-03T16:55:26.013Z,96965.33
2018-12-03T16:57:55.422Z,96965.33
2018-12-03T17:00:24.601Z,96968.41
2018-12-03T17:02:53.782Z,96960.31
2018-12-03T17:05:22.994Z,96965.80
2018-12-03T17:07:52.133Z,96960.76
2018-12-03T17:10:22.153Z,96948.30
2018-12-03T17:12:53.401Z,96948.69
2018-12-03T17:15:23.254Z,96953.91
2018-12-03T17:17:52.774Z,96945.00
2018-12-03T17:20:38.620Z,96943.91
2018-12-03T17:23:28.392Z,96935.98
2018-12-03T17:25:57.728Z,96940.64
2018-12-03T17:28:27.805Z,96931.66
2018-12-03T17:30:57.012Z,96926.83
2018-12-03T17:33:26.915Z,96929.27
2018-12-03T17:35:56.618Z,96921.67
2018-12-03T17:38:25.887Z,96918.62
2018-12-03T17:40:55.513Z,96918.35
2018-12-03T17:43:25.608Z,96908.70
2018-12-03T17:45:56.435Z,96900.88
2018-12-03T17:48:25.776Z,96899.67
2018-12-03T17:50:55.956Z,96900.53
2018-12-03T17:53:25.828Z,96905.31
2018-12-03T17:55:54.960Z,96897.72
2018-12-03T17:58:24.877Z,96889.50
2018-12-03T18:00:54.734Z,96887.12
2018-12-03T18:03:24.323Z,96888.45
2018-12-03T18:05:53.777Z,96884.95
2018-12-03T18:08:23.025Z,96884.93
2018-12-03T18:10:52.238Z,96882.38
2018-12-03T18:13:21.476Z,96878.81
2018-12-03T18:15:50.845Z,96879.19
2018-12-03T18:18:20.280Z,96878.98
2018-12-03T18:20:49.922Z,96878.44
2018-12-03T18:23:19.314Z,96879.31
2018-12-03T18:25:49.060Z,96889.81
2018-12-03T18:28:18.338Z,96887.52
2018-12-03T18:30:47.627Z,96884.59
2018-12-03T18:33:17.937Z,96880.50
2018-12-03T18:35:47.719Z,96878.78
2018-12-03T18:38:16.940Z,96890.96
2018-12-03T18:43:57.570Z,96891.67
2018-12-03T18:46:27.056Z,96886.69
2018-12-03T18:49:04.753Z,96883.13
2018-12-03T18:51:34.407Z,96876.22
2018-12-03T18:54:03.620Z,96862.73
2018-12-03T18:56:32.990Z,96860.74
2018-12-03T18:59:06.444Z,96865.28
2018-12-03T19:01:35.776Z,96861.43
2018-12-03T19:04:05.536Z,96844.34
2018-12-03T19:06:34.771Z,96819.51
2018-12-03T19:09:04.199Z,96833.92
2018-12-03T19:12:03.594Z,96858.70
2018-12-03T19:14:32.808Z,96869.86
2018-12-03T19:17:02.488Z,96881.80
2018-12-03T19:19:31.824Z,96892.63
2018-12-03T19:22:00.967Z,96911.30
2018-12-03T19:24:31.310Z,96909.40
2018-12-03T19:27:00.944Z,96919.89
2018-12-03T19:29:30.239Z,96930.80
2018-12-03T19:31:59.588Z,96935.58
2018-12-03T19:34:29.266Z,96952.20
2018-12-03T19:36:58.454Z,96965.46
2018-12-03T19:39:27.605Z,96969.23
2018-12-03T19:41:56.771Z,96978.76
2018-12-03T19:44:26.650Z,96979.20
2018-12-03T19:46:56.069Z,96993.02
2018-12-03T19:49:25.425Z,97008.36
2018-12-03T19:51:56.316Z,97013.54
2018-12-03T19:54:25.721Z,97025.28
2018-12-03T19:56:55.280Z,97041.78
2018-12-03T19:59:28.404Z,97054.86
2018-12-03T20:01:57.712Z,97053.19
2018-12-03T20:04:32.551Z,97059.80
2018-12-03T20:07:01.737Z,97066.27
2018-12-03T20:09:31.019Z,97085.99
2018-12-03T20:12:00.484Z,97089.61
2018-12-03T20:14:29.705Z,97084.35
2018-12-03T20:17:00.868Z,97095.92
2018-12-03T20:19:30.047Z,97085.36
2018-12-03T20:21:59.324Z,97112.55
2018-12-03T20:24:29.179Z,97118.42
2018-12-03T20:27:20.828Z,97128.86
2018-12-03T20:30:33.204Z,97136.86
2018-12-03T20:33:15.879Z,97145.70
2018-12-03T20:36:01.208Z,97151.66
2018-12-03T20:38:39.117Z,97168.30
2018-12-03T20:41:13.032Z,97180.20
2018-12-03T20:43:43.367Z,97194.06
2018-12-03T20:46:19.899Z,97205.31
2018-12-03T20:49:20.191Z,97212.03
2018-12-03T20:51:52.010Z,97234.05
2018-12-03T20:54:21.299Z,97249.02
2018-12-03T20:56:50.551Z,97258.35
2018-12-03T20:59:19.814Z,97274.63
2018-12-03T21:01:50.504Z,97278.75
2018-12-03T21:04:22.440Z,97298.20
2018-12-03T21:06:52.641Z,97302.65
2018-12-03T21:09:21.767Z,97307.11
2018-12-03T21:11:51.050Z,97307.45
2018-12-03T21:14:20.444Z,97316.27
2018-12-03T21:16:49.943Z,97316.58
2018-12-03T21:19:19.173Z,97324.08
2018-12-03T21:21:49.379Z,97325.70
2018-12-03T21:24:19.125Z,97342.06
2018-12-03T21:26:48.336Z,97338.80
2018-12-03T21:29:17.572Z,97353.06
2018-12-03T21:31:47.137Z,97348.65
2018-12-03T21:34:16.292Z,97345.89
2018-12-03T21:36:46.675Z,97350.29
2018-12-03T21:39:15.964Z,97360.65
2018-12-03T21:41:45.247Z,97352.46
2018-12-03T21:44:14.908Z,97362.73
2018-12-03T21:46:44.100Z,97358.61
2018-12-03T21:49:13.313Z,97359.60
2018-12-03T21:51:43.237Z,97355.20
2018-12-03T21:54:14.773Z,97371.66
2018-12-03T21:56:44.033Z,97378.47
2018-12-03T21:59:13.384Z,97381.33
2018-12-03T22:01:42.566Z,97388.78
2018-12-03T22:04:11.872Z,97399.73
2018-12-03T22:06:41.149Z,97403.18
2018-12-03T22:09:10.445Z,97407.19
2018-12-03T22:11:40.041Z,97412.21
2018-12-03T22:14:09.204Z,97420.03
2018-12-03T22:16:39.116Z,97428.44
2018-12-03T22:19:08.301Z,97429.71
2018-12-03T22:21:38.668Z,97431.29
2018-12-03T22:24:08.037Z,97425.33
2018-12-03T22:26:37.976Z,97434.64
2018-12-03T22:29:07.924Z,97448.32
2018-12-03T22:31:37.840Z,97450.30
2018-12-03T22:34:08.413Z,97447.75
2018-12-03T22:36:37.732Z,97451.66
2018-12-03T22:39:08.829Z,97452.34
2018-12-03T22:41:38.440Z,97446.78
2018-12-03T22:44:08.190Z,97439.35
2018-12-03T22:46:37.602Z,97439.55
2018-12-03T22:49:06.840Z,97444.25
2018-12-03T22:51:36.078Z,97453.44
2018-12-03T22:54:06.315Z,97450.91
2018-12-03T22:56:36.392Z,97454.13
2018-12-03T22:59:05.631Z,97452.86
2018-12-03T23:01:34.828Z,97455.00
2018-12-03T23:04:04.639Z,97459.42
2018-12-03T23:06:33.900Z,97465.77
2018-12-03T23:09:03.772Z,97470.95
2018-12-03T23:11:33.627Z,97474.84
2018-12-03T23:14:02.967Z,97475.64
2018-12-03T23:16:32.921Z,97468.00
2018-12-03T23:19:02.324Z,97469.56
2018-12-03T23:21:31.968Z,97472.61
2018-12-03T23:24:01.227Z,97476.89
2018-12-03T23:26:30.380Z,97477.77
2018-12-03T23:29:00.247Z,97480.91
2018-12-03T23:31:29.456Z,97483.66
2018-12-03T23:33:58.967Z,97491.07
2018-12-03T23:36:28.184Z,97482.28
2018-12-03T23:38:57.441Z,97482.18
2018-12-03T23:41:26.739Z,97477.20
2018-12-03T23:43:56.216Z,97485.99
2018-12-03T23:46:26.048Z,97489.62
2018-12-03T23:48:55.290Z,97490.19
2018-12-03T23:51:25.180Z,97495.69
2018-12-03T23:53:54.508Z,97487.26
2018-12-03T23:56:24.384Z,97489.23
2018-12-03T23:58:54.020Z,97491.07
